Time;durP1;ratioP1;P1;durP2;ratioP2;P2;SDS_P1;SDS_P2;PMS_P1;PMS_P2;Temp;Humidity;BMP_temperature;BMP_pressure;BME280_temperature;BME280_humidity;BME280_pressure;Samples;Min_cycle;Max_cycle;Signal;HPM_P1;HPM_P2
2023/01/12 00:05:06;;;;;;;5.07;1.52;;;;;;;;;;10351780;28;20042;-80
2023/01/12 00:10:28;;;;;;;13.93;2.40;;;;;;;;;;10351625;28;20468;-81
2023/01/12 00:21:03;;;;;;;6.93;1.80;;;;;;;;;;10349047;28;20479;-80
2023/01/12 00:26:15;;;;;;;6.82;1.50;;;;;;;;;;10333344;28;20128;-82
2023/01/12 00:31:27;;;;;;;12.43;2.33;;;;;;;;;;10356021;28;20688;-82
2023/01/12 00:36:33;;;;;;;6.97;1.63;;;;;;;;;;10351224;28;20034;-80
2023/01/12 00:46:59;;;;;;;8.95;2.22;;;;;;;;;;10355686;28;20429;-80
2023/01/12 00:52:05;;;;;;;6.20;1.40;;;;;;;;;;10357662;28;20065;-80
2023/01/12 00:57:12;;;;;;;6.63;1.85;;;;;;;;;;10358618;28;20100;-79
2023/01/12 01:02:15;;;;;;;6.40;1.92;;;;;;;;;;10358150;28;22031;-80
2023/01/12 01:07:21;;;;;;;7.13;1.80;;;;;;;;;;10357181;28;20510;-80
2023/01/12 01:12:24;;;;;;;10.93;2.07;;;;;;;;;;10344221;28;20096;-80
2023/01/12 01:17:28;;;;;;;8.65;2.33;;;;;;;;;;10347480;28;20076;-82
2023/01/12 01:22:42;;;;;;;5.35;1.35;;;;;;;;;;10357425;28;20064;-80
2023/01/12 01:27:46;;;;;;;4.75;1.23;;;;;;;;;;10355692;28;20489;-79
2023/01/12 01:32:51;;;;;;;7.50;1.85;;;;;;;;;;10339355;28;20057;-81
2023/01/12 01:37:58;;;;;;;6.47;1.50;;;;;;;;;;10331677;28;20618;-81
2023/01/12 01:43:01;;;;;;;6.13;1.63;;;;;;;;;;10356478;28;20131;-80
2023/01/12 01:48:09;;;;;;;7.00;1.77;;;;;;;;;;10355417;28;20417;-80
2023/01/12 01:53:20;;;;;;;4.68;1.40;;;;;;;;;;10355645;28;20054;-81
2023/01/12 01:58:27;;;;;;;10.75;2.40;;;;;;;;;;10353995;28;20486;-80
2023/01/12 02:03:33;;;;;;;4.85;1.48;;;;;;;;;;10355359;28;20038;-81
2023/01/12 02:08:45;;;;;;;6.57;1.75;;;;;;;;;;10355675;28;20057;-80
2023/01/12 02:19:30;;;;;;;5.10;1.52;;;;;;;;;;10354582;28;20049;-79
2023/01/12 02:25:00;;;;;;;5.60;1.73;;;;;;;;;;10352870;28;20108;-80
2023/01/12 02:30:28;;;;;;;5.43;1.50;;;;;;;;;;10356421;28;20484;-79
2023/01/12 02:35:43;;;;;;;6.05;1.30;;;;;;;;;;10312735;28;20115;-79
2023/01/12 02:40:51;;;;;;;8.70;1.80;;;;;;;;;;10353015;28;20044;-79
2023/01/12 02:46:00;;;;;;;4.93;1.50;;;;;;;;;;10353410;28;20096;-79
2023/01/12 02:51:11;;;;;;;6.15;1.63;;;;;;;;;;10336203;28;20096;-80
2023/01/12 02:56:18;;;;;;;4.97;1.38;;;;;;;;;;10352817;28;20050;-79
2023/01/12 03:01:23;;;;;;;8.32;1.80;;;;;;;;;;10353510;28;20064;-80
2023/01/12 03:06:41;;;;;;;6.63;1.63;;;;;;;;;;10353758;28;20045;-81
2023/01/12 03:11:48;;;;;;;7.65;1.77;;;;;;;;;;10358491;28;20038;-81
2023/01/12 03:16:54;;;;;;;7.05;1.85;;;;;;;;;;10351792;28;20084;-80
2023/01/12 03:22:02;;;;;;;7.63;2.30;;;;;;;;;;10344272;28;20533;-80
2023/01/12 03:27:13;;;;;;;9.57;2.17;;;;;;;;;;10349852;28;20069;-79
2023/01/12 03:32:17;;;;;;;3.53;1.13;;;;;;;;;;10333205;28;20100;-79
2023/01/12 03:37:27;;;;;;;6.25;1.58;;;;;;;;;;10348475;28;20071;-79
2023/01/12 03:42:38;;;;;;;6.18;1.88;;;;;;;;;;10349868;28;20284;-79
2023/01/12 03:47:44;;;;;;;7.57;1.80;;;;;;;;;;10349775;28;20121;-81
2023/01/12 03:52:52;;;;;;;;;;;;;;;;;;10333100;28;20034;-79
2023/01/12 03:57:57;;;;;;;5.00;1.20;;;;;;;;;;10342193;28;19940;-80
2023/01/12 04:03:07;;;;;;;8.50;1.90;;;;;;;;;;10349650;28;20081;-80
2023/01/12 04:08:14;;;;;;;4.20;1.17;;;;;;;;;;10348797;28;20096;-79
2023/01/12 04:13:18;;;;;;;3.58;0.60;;;;;;;;;;10348641;28;20046;-80
2023/01/12 04:18:21;;;;;;;1.92;0.80;;;;;;;;;;10337167;28;20099;-80
2023/01/12 04:23:26;;;;;;;2.90;0.60;;;;;;;;;;10346855;28;20121;-80
2023/01/12 04:28:29;;;;;;;1.90;0.80;;;;;;;;;;10347382;28;20065;-80
2023/01/12 04:33:36;;;;;;;2.03;0.70;;;;;;;;;;10348735;28;20046;-80
2023/01/12 04:38:42;;;;;;;1.73;0.70;;;;;;;;;;10349048;28;20038;-80
2023/01/12 04:43:46;;;;;;;2.80;0.57;;;;;;;;;;10350170;28;20045;-80
2023/01/12 04:48:50;;;;;;;2.63;0.90;;;;;;;;;;10349552;28;20052;-80
2023/01/12 04:53:55;;;;;;;0.93;0.52;;;;;;;;;;10329382;28;20481;-80
2023/01/12 04:58:59;;;;;;;1.65;0.80;;;;;;;;;;10347878;28;20045;-80
2023/01/12 05:04:08;;;;;;;2.70;0.90;;;;;;;;;;10349286;28;20051;-80
2023/01/12 05:14:49;;;;;;;1.33;0.50;;;;;;;;;;10215736;28;20115;-81
2023/01/12 05:19:55;;;;;;;2.33;0.70;;;;;;;;;;10316141;28;20560;-81
2023/01/12 05:25:03;;;;;;;2.67;0.75;;;;;;;;;;10344509;28;20056;-80
2023/01/12 05:30:07;;;;;;;3.65;0.73;;;;;;;;;;10316969;28;20537;-79
2023/01/12 05:35:11;;;;;;;3.00;0.98;;;;;;;;;;10354617;28;20112;-78
2023/01/12 05:40:19;;;;;;;3.50;0.80;;;;;;;;;;10350826;28;20104;-80
2023/01/12 05:45:24;;;;;;;2.08;0.98;;;;;;;;;;10334551;28;20060;-79
2023/01/12 05:50:28;;;;;;;2.67;0.80;;;;;;;;;;10338747;28;20042;-79
2023/01/12 05:55:47;;;;;;;1.35;0.70;;;;;;;;;;10344238;28;20238;-81
2023/01/12 06:00:58;;;;;;;2.20;0.70;;;;;;;;;;10354581;28;20046;-81
2023/01/12 06:06:02;;;;;;;2.33;0.77;;;;;;;;;;10353508;28;20085;-83
2023/01/12 06:16:55;;;;;;;1.02;0.70;;;;;;;;;;10331861;28;20674;-81
2023/01/12 06:22:03;;;;;;;3.45;0.85;;;;;;;;;;10313940;28;20050;-81
2023/01/12 06:28:00;;;;;;;;;;;;;;;;;;;;;
2023/01/12 06:34:10;;;;;;;3.33;0.80;;;;;;;;;;10168596;29;20067;-83
2023/01/12 06:40:45;;;;;;;2.58;0.95;;;;;;;;;;10274278;28;20054;-83
2023/01/12 06:58:59;;;;;;;3.05;0.68;;;;;;;;;;10342765;28;20046;-81
2023/01/12 07:04:17;;;;;;;4.10;1.05;;;;;;;;;;10331729;28;20523;-82
2023/01/12 07:35:09;;;;;;;3.05;0.93;;;;;;;;;;10344765;22;20046;-83
2023/01/12 07:40:14;;;;;;;4.20;1.10;;;;;;;;;;10337922;28;20060;-83
2023/01/12 07:45:18;;;;;;;0.80;0.57;;;;;;;;;;10354569;28;20126;-83
2023/01/12 07:50:21;;;;;;;3.65;0.70;;;;;;;;;;10381546;28;20037;-83
2023/01/12 07:55:26;;;;;;;2.55;0.75;;;;;;;;;;10365560;28;20046;-83
2023/01/12 08:00:30;;;;;;;2.83;1.20;;;;;;;;;;10374176;28;20059;-83
2023/01/12 08:05:35;;;;;;;3.42;1.25;;;;;;;;;;10370999;28;20120;-83
2023/01/12 08:10:39;;;;;;;6.25;1.60;;;;;;;;;;10382957;28;20041;-83
2023/01/12 08:15:48;;;;;;;2.30;1.20;;;;;;;;;;10374195;28;20481;-82
2023/01/12 08:20:55;;;;;;;4.95;1.10;;;;;;;;;;10376211;28;20125;-83
2023/01/12 08:26:03;;;;;;;5.55;1.50;;;;;;;;;;10366299;28;20532;-85
2023/01/12 08:31:09;;;;;;;3.25;1.17;;;;;;;;;;10382094;28;20049;-84
2023/01/12 08:36:15;;;;;;;4.88;1.20;;;;;;;;;;10375374;28;20073;-84
2023/01/12 08:41:32;;;;;;;5.22;1.05;;;;;;;;;;10397397;28;20041;-84
2023/01/12 08:46:36;;;;;;;4.57;1.25;;;;;;;;;;10390721;28;20033;-84
2023/01/12 08:51:40;;;;;;;3.05;1.00;;;;;;;;;;10391791;28;20116;-83
2023/01/12 08:56:45;;;;;;;2.47;1.05;;;;;;;;;;10391239;28;20045;-84
2023/01/12 09:01:49;;;;;;;4.90;1.92;;;;;;;;;;10409080;28;20369;-84
2023/01/12 09:06:52;;;;;;;5.47;1.40;;;;;;;;;;10369093;28;20045;-82
2023/01/12 09:11:57;;;;;;;2.65;0.90;;;;;;;;;;10371063;28;20040;-83
2023/01/12 09:17:00;;;;;;;3.75;1.30;;;;;;;;;;10368820;28;20045;-83
2023/01/12 09:22:03;;;;;;;2.53;0.90;;;;;;;;;;10384276;28;20038;-83
2023/01/12 09:27:10;;;;;;;1.98;0.68;;;;;;;;;;10390118;28;20049;-84
2023/01/12 09:32:14;;;;;;;1.92;0.60;;;;;;;;;;10380204;28;20058;-83
2023/01/12 09:37:19;;;;;;;1.63;0.60;;;;;;;;;;10373474;28;20046;-83
2023/01/12 09:47:54;;;;;;;2.50;0.65;;;;;;;;;;10374451;28;20060;-82
2023/01/12 09:53:02;;;;;;;1.58;0.60;;;;;;;;;;10385110;28;20394;-83
2023/01/12 09:58:27;;;;;;;1.98;0.70;;;;;;;;;;10371980;28;20046;-84
2023/01/12 10:03:34;;;;;;;3.83;0.95;;;;;;;;;;10354005;28;20045;-84
2023/01/12 10:08:41;;;;;;;2.58;0.88;;;;;;;;;;10336264;28;20066;-82
2023/01/12 10:14:09;;;;;;;5.18;0.82;;;;;;;;;;10337831;28;20048;-83
2023/01/12 10:19:23;;;;;;;2.88;1.10;;;;;;;;;;10328552;28;20046;-82
2023/01/12 10:24:27;;;;;;;2.47;0.88;;;;;;;;;;10360075;28;20439;-82
2023/01/12 10:29:33;;;;;;;3.30;0.80;;;;;;;;;;10338872;28;20072;-82
2023/01/12 10:34:50;;;;;;;2.78;1.08;;;;;;;;;;10343818;28;20072;-83
2023/01/12 10:39:53;;;;;;;4.45;0.88;;;;;;;;;;10338959;28;20042;-83
2023/01/12 10:45:15;;;;;;;2.65;0.90;;;;;;;;;;10327251;28;20046;-82
2023/01/12 10:50:27;;;;;;;6.65;0.90;;;;;;;;;;10395413;23;20042;-79
2023/01/12 10:55:40;;;;;;;1.88;0.70;;;;;;;;;;10324971;28;20042;-79
2023/01/12 11:01:14;;;;;;;3.70;1.23;;;;;;;;;;10392383;28;20570;-79
2023/01/12 11:07:07;;;;;;;;;;;;;;;;;;;;;
2023/01/12 11:13:02;;;;;;;2.17;0.90;;;;;;;;;;10273536;28;20029;-79
2023/01/12 11:18:46;;;;;;;0.77;0.50;;;;;;;;;;10391358;28;20581;-80
2023/01/12 11:24:03;;;;;;;1.38;0.50;;;;;;;;;;10391078;28;20563;-80
2023/01/12 11:29:38;;;;;;;2.17;0.75;;;;;;;;;;10369814;28;20065;-79
2023/01/12 11:34:55;;;;;;;4.88;1.00;;;;;;;;;;10362330;28;20069;-79
2023/01/12 11:40:07;;;;;;;3.00;1.10;;;;;;;;;;10387298;28;20121;-79
2023/01/12 11:45:25;;;;;;;1.60;0.70;;;;;;;;;;10386273;28;20424;-79
2023/01/12 11:50:34;;;;;;;0.85;0.47;;;;;;;;;;10366940;28;20052;-79
2023/01/12 11:56:08;;;;;;;1.73;0.95;;;;;;;;;;10390310;28;20034;-79
2023/01/12 12:01:20;;;;;;;0.38;0.38;;;;;;;;;;10366985;28;20064;-80
2023/01/12 12:07:06;;;;;;;2.38;0.90;;;;;;;;;;10389929;28;20546;-79
2023/01/12 12:12:16;;;;;;;1.08;0.40;;;;;;;;;;10356595;28;20321;-79
2023/01/12 12:17:25;;;;;;;0.82;0.40;;;;;;;;;;10388256;28;20049;-79
2023/01/12 12:22:42;;;;;;;1.10;0.40;;;;;;;;;;10372702;28;20053;-79
2023/01/12 12:28:06;;;;;;;1.40;0.50;;;;;;;;;;10389691;28;20041;-79
2023/01/12 12:33:23;;;;;;;0.85;0.40;;;;;;;;;;10380035;28;20076;-79
2023/01/12 12:38:36;;;;;;;1.40;0.60;;;;;;;;;;10377117;28;20054;-80
2023/01/12 12:49:05;;;;;;;0.43;0.43;;;;;;;;;;10397608;28;20054;-79
2023/01/12 12:54:16;;;;;;;1.05;0.63;;;;;;;;;;10397040;28;20041;-79
2023/01/12 12:59:54;;;;;;;0.98;0.63;;;;;;;;;;10397189;28;20564;-79
2023/01/12 13:05:05;;;;;;;1.23;0.70;;;;;;;;;;10380132;28;20103;-79
2023/01/12 13:10:31;;;;;;;1.30;0.45;;;;;;;;;;10378567;28;20424;-79
2023/01/12 13:15:37;;;;;;;1.58;0.40;;;;;;;;;;10370729;28;20033;-79
2023/01/12 13:21:04;;;;;;;1.00;0.30;;;;;;;;;;10395899;28;20037;-79
2023/01/12 13:26:44;;;;;;;0.28;0.20;;;;;;;;;;10374768;28;20575;-80
2023/01/12 13:31:49;;;;;;;0.30;0.30;;;;;;;;;;10378683;28;20099;-79
2023/01/12 13:37:09;;;;;;;0.35;0.20;;;;;;;;;;10395591;28;20045;-79
2023/01/12 13:47:39;;;;;;;0.30;0.30;;;;;;;;;;10394860;28;20088;-79
2023/01/12 13:52:55;;;;;;;0.63;0.28;;;;;;;;;;10394689;28;20038;-78
2023/01/12 13:58:04;;;;;;;0.40;0.30;;;;;;;;;;10394327;28;20037;-80
2023/01/12 14:03:26;;;;;;;0.30;0.30;;;;;;;;;;10377138;28;20467;-79
2023/01/12 14:08:59;;;;;;;0.40;0.40;;;;;;;;;;10394355;28;20038;-79
2023/01/12 14:19:50;;;;;;;0.82;0.30;;;;;;;;;;10394483;28;19921;-79
2023/01/12 14:25:24;;;;;;;0.30;0.28;;;;;;;;;;10394504;28;20058;-79
2023/01/12 14:30:58;;;;;;;0.63;0.28;;;;;;;;;;10377899;28;20613;-80
2023/01/12 14:36:26;;;;;;;0.52;0.20;;;;;;;;;;10375509;28;20052;-80
2023/01/12 14:47:13;;;;;;;;;;;;;;;;;;;;;
2023/01/12 14:52:31;;;;;;;0.20;0.20;;;;;;;;;;10369887;28;20231;-81
2023/01/12 14:57:47;;;;;;;0.95;0.50;;;;;;;;;;10373131;28;20560;-80
2023/01/12 15:02:59;;;;;;;1.40;0.65;;;;;;;;;;10390176;28;20052;-80
2023/01/12 15:08:25;;;;;;;0.50;0.30;;;;;;;;;;10387733;28;20096;-80
2023/01/12 15:13:42;;;;;;;0.30;0.20;;;;;;;;;;10389644;28;20045;-80
2023/01/12 15:30:10;;;;;;;0.75;0.47;;;;;;;;;;10373682;28;20077;-79
2023/01/12 15:35:34;;;;;;;1.40;0.65;;;;;;;;;;10370996;28;20030;-80
2023/01/12 15:40:37;;;;;;;0.63;0.30;;;;;;;;;;10355467;28;20208;-79
2023/01/12 15:45:47;;;;;;;0.55;0.38;;;;;;;;;;10378400;28;20034;-80
2023/01/12 15:51:13;;;;;;;0.52;0.40;;;;;;;;;;10378264;28;20045;-80
2023/01/12 15:56:36;;;;;;;2.63;1.40;;;;;;;;;;10388074;28;20037;-78
2023/01/12 16:02:02;;;;;;;;;;;;;;;;;;;;;
2023/01/12 16:07:13;;;;;;;1.48;0.60;;;;;;;;;;10386739;28;20048;-79
2023/01/12 16:12:35;;;;;;;1.25;0.60;;;;;;;;;;10388583;28;20091;-78
2023/01/12 16:17:46;;;;;;;3.17;0.95;;;;;;;;;;10366884;28;20038;-79
2023/01/12 16:22:53;;;;;;;0.93;0.30;;;;;;;;;;10367308;28;20497;-79
2023/01/12 16:27:59;;;;;;;0.50;0.30;;;;;;;;;;10355556;28;20096;-78
2023/01/12 16:33:14;;;;;;;0.90;0.40;;;;;;;;;;10371458;28;20057;-78
2023/01/12 16:38:24;;;;;;;0.43;0.40;;;;;;;;;;10387988;28;20068;-79
2023/01/12 16:43:32;;;;;;;0.30;0.30;;;;;;;;;;10388517;28;20554;-79
2023/01/12 16:48:58;;;;;;;1.00;0.52;;;;;;;;;;10379298;28;20041;-79
2023/01/12 16:54:03;;;;;;;2.00;0.30;;;;;;;;;;10334873;23;20085;-82
2023/01/12 16:59:06;;;;;;;0.63;0.40;;;;;;;;;;10267030;28;20122;-82
2023/01/12 17:04:11;;;;;;;0.98;0.43;;;;;;;;;;10254968;28;20249;-82
2023/01/12 17:09:15;;;;;;;0.38;0.30;;;;;;;;;;10252235;28;20332;-82
2023/01/12 17:14:25;;;;;;;0.75;0.30;;;;;;;;;;10240599;28;20058;-82
2023/01/12 17:19:32;;;;;;;0.30;0.30;;;;;;;;;;10237707;28;20551;-82
2023/01/12 17:24:39;;;;;;;2.00;0.70;;;;;;;;;;10254791;28;20167;-81
2023/01/12 17:29:42;;;;;;;;;;;;;;;;;;10257837;28;20141;-82
2023/01/12 17:34:47;;;;;;;0.60;0.40;;;;;;;;;;10266143;28;19928;-82
2023/01/12 17:39:51;;;;;;;0.38;0.38;;;;;;;;;;10259549;28;20062;-82
2023/01/12 17:44:55;;;;;;;0.70;0.30;;;;;;;;;;10252739;28;20047;-83
2023/01/12 17:49:59;;;;;;;1.02;0.50;;;;;;;;;;10245515;28;20043;-83
2023/01/12 17:55:03;;;;;;;2.38;1.00;;;;;;;;;;10251661;28;20040;-83
2023/01/12 18:00:09;;;;;;;1.52;0.63;;;;;;;;;;10252955;28;20057;-84
2023/01/12 18:05:16;;;;;;;0.85;0.52;;;;;;;;;;10261510;28;20038;-83
2023/01/12 18:10:20;;;;;;;2.95;0.43;;;;;;;;;;10260999;28;20047;-83
2023/01/12 18:15:23;;;;;;;0.73;0.40;;;;;;;;;;10266895;28;20536;-82
2023/01/12 18:20:28;;;;;;;0.30;0.30;;;;;;;;;;10280065;28;20051;-82
2023/01/12 18:25:36;;;;;;;1.05;0.52;;;;;;;;;;10279153;28;20125;-82
2023/01/12 18:30:39;;;;;;;0.68;0.40;;;;;;;;;;10297968;28;20043;-81
2023/01/12 18:35:44;;;;;;;0.60;0.60;;;;;;;;;;10293660;28;20058;-82
2023/01/12 18:42:48;;;;;;;1.33;0.80;;;;;;;;;;10310866;28;20044;-82
2023/01/12 18:46:11;;;;;;;0.73;0.40;;;;;;;;;;10275520;28;20043;-80
2023/01/12 18:56:48;;;;;;;0.40;0.40;;;;;;;;;;10198941;28;20077;-80
2023/01/12 19:01:51;;;;;;;0.43;0.40;;;;;;;;;;10254632;28;20545;-80
2023/01/12 19:06:59;;;;;;;0.43;0.40;;;;;;;;;;10260446;28;20767;-80
2023/01/12 19:12:04;;;;;;;0.68;0.30;;;;;;;;;;10241635;28;20050;-80
2023/01/12 19:17:28;;;;;;;0.68;0.30;;;;;;;;;;10261194;28;20042;-80
2023/01/12 19:33:16;;;;;;;1.10;0.60;;;;;;;;;;10262515;28;20045;-80
2023/01/12 19:38:20;;;;;;;0.57;0.50;;;;;;;;;;10261043;28;20130;-80
2023/01/12 19:43:26;;;;;;;0.70;0.30;;;;;;;;;;10269044;28;20050;-81
2023/01/12 19:48:31;;;;;;;0.45;0.40;;;;;;;;;;10279669;28;20073;-82
2023/01/12 19:53:36;;;;;;;0.52;0.35;;;;;;;;;;10277738;28;20125;-83
2023/01/12 19:58:39;;;;;;;1.52;0.65;;;;;;;;;;10279680;28;20057;-82
2023/01/12 20:03:42;;;;;;;2.70;1.00;;;;;;;;;;10324986;28;20125;-81
2023/01/12 20:08:47;;;;;;;1.90;1.08;;;;;;;;;;10320195;28;20047;-82
2023/01/12 20:13:51;;;;;;;0.38;0.38;;;;;;;;;;10279220;28;20215;-82
2023/01/12 20:18:58;;;;;;;2.40;1.05;;;;;;;;;;10281795;28;20053;-82
2023/01/12 20:24:03;;;;;;;1.25;0.52;;;;;;;;;;10289792;28;20054;-82
2023/01/12 20:29:06;;;;;;;2.35;0.43;;;;;;;;;;10278490;28;20050;-82
2023/01/12 20:34:10;;;;;;;0.45;0.30;;;;;;;;;;10263157;28;20831;-80
2023/01/12 20:39:15;;;;;;;0.30;0.30;;;;;;;;;;10256171;28;20082;-80
2023/01/12 20:44:19;;;;;;;1.65;0.50;;;;;;;;;;10270757;28;20442;-80
2023/01/12 20:49:23;;;;;;;0.40;0.40;;;;;;;;;;10259256;28;20161;-81
2023/01/12 20:54:27;;;;;;;1.05;0.60;;;;;;;;;;10272241;28;20379;-80
2023/01/12 20:59:31;;;;;;;1.13;0.47;;;;;;;;;;10254625;28;20051;-80
2023/01/12 21:04:35;;;;;;;0.90;0.50;;;;;;;;;;10263059;28;20705;-80
2023/01/12 21:09:40;;;;;;;0.88;0.43;;;;;;;;;;10263307;28;20049;-80
2023/01/12 21:14:44;;;;;;;0.98;0.60;;;;;;;;;;10281718;28;20697;-80
2023/01/12 21:19:47;;;;;;;9.10;3.60;;;;;;;;;;10267591;28;20414;-81
2023/01/12 21:24:52;;;;;;;3.95;1.83;;;;;;;;;;10267330;28;20302;-83
2023/01/12 21:29:56;;;;;;;2.15;0.80;;;;;;;;;;10310595;28;20047;-82
2023/01/12 21:34:59;;;;;;;0.70;0.50;;;;;;;;;;10287932;28;20516;-81
2023/01/12 21:40:05;;;;;;;1.10;0.25;;;;;;;;;;10290171;28;20581;-82
2023/01/12 21:45:09;;;;;;;0.22;0.22;;;;;;;;;;10276548;28;20422;-80
2023/01/12 21:50:13;;;;;;;0.40;0.30;;;;;;;;;;10263108;28;20047;-80
2023/01/12 21:55:18;;;;;;;0.47;0.30;;;;;;;;;;10284544;28;20051;-80
2023/01/12 22:00:22;;;;;;;0.23;0.17;;;;;;;;;;10268647;28;20043;-82
2023/01/12 22:05:29;;;;;;;0.28;0.22;;;;;;;;;;10285598;28;20166;-82
2023/01/12 22:10:34;;;;;;;0.32;0.22;;;;;;;;;;10272663;28;20528;-80
2023/01/12 22:15:37;;;;;;;0.47;0.32;;;;;;;;;;10262510;28;20042;-80
2023/01/12 22:20:41;;;;;;;1.00;0.40;;;;;;;;;;10262896;28;20057;-80
2023/01/12 22:25:45;;;;;;;0.50;0.40;;;;;;;;;;10278215;28;20142;-80
2023/01/12 22:30:50;;;;;;;0.50;0.22;;;;;;;;;;10262138;28;20133;-81
2023/01/12 22:35:53;;;;;;;0.40;0.30;;;;;;;;;;10262826;28;20051;-81
2023/01/12 22:41:03;;;;;;;0.63;0.20;;;;;;;;;;10253383;28;20078;-80
2023/01/12 22:46:13;;;;;;;1.05;0.30;;;;;;;;;;10260205;28;20110;-81
2023/01/12 22:51:16;;;;;;;0.22;0.20;;;;;;;;;;10259788;28;20061;-81
2023/01/12 22:56:21;;;;;;;0.28;0.22;;;;;;;;;;10284368;28;20736;-82
2023/01/12 23:01:25;;;;;;;0.55;0.20;;;;;;;;;;10289029;28;20097;-80
2023/01/12 23:06:29;;;;;;;1.08;0.45;;;;;;;;;;10259886;28;20051;-79
2023/01/12 23:11:34;;;;;;;0.20;0.20;;;;;;;;;;10282994;28;20062;-81
2023/01/12 23:16:38;;;;;;;2.30;0.80;;;;;;;;;;10283429;28;20070;-82
2023/01/12 23:21:42;;;;;;;1.50;0.70;;;;;;;;;;10298960;28;20050;-81
2023/01/12 23:26:47;;;;;;;3.95;1.92;;;;;;;;;;10259730;28;20285;-81
2023/01/12 23:31:51;;;;;;;1.00;0.45;;;;;;;;;;10259158;28;20491;-80
2023/01/12 23:36:54;;;;;;;0.50;0.30;;;;;;;;;;10261176;28;20066;-80
2023/01/12 23:41:59;;;;;;;0.70;0.32;;;;;;;;;;10252078;28;20529;-80
2023/01/12 23:47:05;;;;;;;0.85;0.22;;;;;;;;;;10261526;28;20046;-79
2023/01/12 23:52:08;;;;;;;0.20;0.20;;;;;;;;;;10260838;28;20577;-80
2023/01/12 23:57:13;;;;;;;0.30;0.30;;;;;;;;;;10260875;28;20043;-79
